sensor_id;sensor_type;location;lat;lon;timestamp;pressure;altitude;pressure_sealevel;temperature;humidity
74346;BME280;62776;50.518;6.732;2022-10-16T00:01:10;96175.38;;;13.36;100.00
74346;BME280;62776;50.518;6.732;2022-10-16T00:03:59;96166.69;;;13.36;100.00
74346;BME280;62776;50.518;6.732;2022-10-16T00:06:45;96166.66;;;13.37;100.00
74346;BME280;62776;50.518;6.732;2022-10-16T00:09:31;96157.97;;;13.35;100.00
74346;BME280;62776;50.518;6.732;2022-10-16T00:12:17;96165.78;;;13.37;100.00
74346;BME280;62776;50.518;6.732;2022-10-16T00:15:04;96165.06;;;13.32;100.00
74346;BME280;62776;50.518;6.732;2022-10-16T00:17:50;96173.84;;;13.29;100.00
74346;BME280;62776;50.518;6.732;2022-10-16T00:20:36;96179.00;;;13.31;100.00
74346;BME280;62776;50.518;6.732;2022-10-16T00:23:22;96171.31;;;13.26;100.00
74346;BME280;62776;50.518;6.732;2022-10-16T00:26:17;96169.88;;;13.15;100.00
74346;BME280;62776;50.518;6.732;2022-10-16T00:29:04;96164.53;;;13.19;100.00
74346;BME280;62776;50.518;6.732;2022-10-16T00:31:51;96168.06;;;13.18;100.00
74346;BME280;62776;50.518;6.732;2022-10-16T00:34:37;96161.91;;;13.19;100.00
74346;BME280;62776;50.518;6.732;2022-10-16T00:37:23;96153.22;;;13.19;100.00
74346;BME280;62776;50.518;6.732;2022-10-16T00:40:10;96159.44;;;13.15;100.00
74346;BME280;62776;50.518;6.732;2022-10-16T00:42:56;96165.44;;;13.18;100.00
74346;BME280;62776;50.518;6.732;2022-10-16T00:45:42;96163.78;;;13.16;100.00
74346;BME280;62776;50.518;6.732;2022-10-16T00:48:28;96174.22;;;13.14;100.00
74346;BME280;62776;50.518;6.732;2022-10-16T00:51:15;96182.13;;;13.13;100.00
74346;BME280;62776;50.518;6.732;2022-10-16T00:54:06;96160.47;;;13.09;100.00
74346;BME280;62776;50.518;6.732;2022-10-16T00:56:55;96147.44;;;13.08;100.00
74346;BME280;62776;50.518;6.732;2022-10-16T00:59:43;96164.84;;;13.06;100.00
74346;BME280;62776;50.518;6.732;2022-10-16T01:02:29;96156.13;;;13.08;100.00
74346;BME280;62776;50.518;6.732;2022-10-16T01:05:15;96158.78;;;13.05;100.00
74346;BME280;62776;50.518;6.732;2022-10-16T01:08:18;96176.63;;;12.88;100.00
74346;BME280;62776;50.518;6.732;2022-10-16T01:12:06;96180.28;;;12.81;100.00
74346;BME280;62776;50.518;6.732;2022-10-16T01:14:58;96170.56;;;12.86;100.00
74346;BME280;62776;50.518;6.732;2022-10-16T01:21:02;96194.13;;;12.83;100.00
74346;BME280;62776;50.518;6.732;2022-10-16T01:27:08;96180.34;;;12.78;100.00
74346;BME280;62776;50.518;6.732;2022-10-16T01:30:21;96180.75;;;12.63;100.00
74346;BME280;62776;50.518;6.732;2022-10-16T01:33:20;96176.13;;;12.74;100.00
74346;BME280;62776;50.518;6.732;2022-10-16T01:36:19;96180.41;;;12.75;100.00
74346;BME280;62776;50.518;6.732;2022-10-16T01:39:09;96197.78;;;12.76;100.00
74346;BME280;62776;50.518;6.732;2022-10-16T01:42:03;96202.16;;;12.75;100.00
74346;BME280;62776;50.518;6.732;2022-10-16T01:44:52;96203.81;;;12.78;100.00
74346;BME280;62776;50.518;6.732;2022-10-16T01:47:39;96205.56;;;12.77;100.00
74346;BME280;62776;50.518;6.732;2022-10-16T01:50:27;96203.81;;;12.79;100.00
74346;BME280;62776;50.518;6.732;2022-10-16T01:53:14;96189.00;;;12.80;100.00
74346;BME280;62776;50.518;6.732;2022-10-16T01:56:03;96183.81;;;12.80;100.00
74346;BME280;62776;50.518;6.732;2022-10-16T01:59:03;96181.41;;;12.71;100.00
74346;BME280;62776;50.518;6.732;2022-10-16T02:01:54;96186.44;;;12.78;100.00
74346;BME280;62776;50.518;6.732;2022-10-16T02:04:46;96180.34;;;12.78;100.00
74346;BME280;62776;50.518;6.732;2022-10-16T02:07:34;96177.56;;;12.85;100.00
74346;BME280;62776;50.518;6.732;2022-10-16T02:10:21;96175.78;;;12.87;100.00
74346;BME280;62776;50.518;6.732;2022-10-16T02:13:31;96177.88;;;12.73;100.00
74346;BME280;62776;50.518;6.732;2022-10-16T02:16:19;96178.31;;;12.90;100.00
74346;BME280;62776;50.518;6.732;2022-10-16T02:19:06;96178.22;;;12.93;100.00
74346;BME280;62776;50.518;6.732;2022-10-16T02:22:02;96175.78;;;12.87;100.00
74346;BME280;62776;50.518;6.732;2022-10-16T02:31:04;96197.22;;;12.98;100.00
74346;BME280;62776;50.518;6.732;2022-10-16T02:33:52;96201.47;;;13.02;100.00
74346;BME280;62776;50.518;6.732;2022-10-16T02:36:39;96213.75;;;12.99;100.00
74346;BME280;62776;50.518;6.732;2022-10-16T02:39:28;96219.78;;;13.01;100.00
74346;BME280;62776;50.518;6.732;2022-10-16T02:42:15;96231.00;;;13.05;100.00
74346;BME280;62776;50.518;6.732;2022-10-16T02:45:04;96212.69;;;13.06;100.00
74346;BME280;62776;50.518;6.732;2022-10-16T02:47:51;96197.84;;;13.10;100.00
74346;BME280;62776;50.518;6.732;2022-10-16T02:50:37;96208.22;;;13.13;100.00
74346;BME280;62776;50.518;6.732;2022-10-16T02:53:23;96191.69;;;13.12;100.00
74346;BME280;62776;50.518;6.732;2022-10-16T02:56:09;96192.56;;;13.13;100.00
74346;BME280;62776;50.518;6.732;2022-10-16T02:58:55;96189.97;;;13.11;100.00
74346;BME280;62776;50.518;6.732;2022-10-16T03:01:44;96186.66;;;13.03;100.00
74346;BME280;62776;50.518;6.732;2022-10-16T03:04:32;96197.09;;;13.03;100.00
74346;BME280;62776;50.518;6.732;2022-10-16T03:07:18;96197.97;;;13.02;100.00
74346;BME280;62776;50.518;6.732;2022-10-16T03:10:05;96193.69;;;13.01;100.00
74346;BME280;62776;50.518;6.732;2022-10-16T03:12:51;96199.84;;;12.98;100.00
74346;BME280;62776;50.518;6.732;2022-10-16T03:15:37;96197.97;;;13.03;100.00
74346;BME280;62776;50.518;6.732;2022-10-16T03:18:23;96198.81;;;13.04;100.00
74346;BME280;62776;50.518;6.732;2022-10-16T03:21:09;96209.25;;;13.04;100.00
74346;BME280;62776;50.518;6.732;2022-10-16T03:23:55;96204.91;;;13.05;100.00
74346;BME280;62776;50.518;6.732;2022-10-16T03:26:41;96196.16;;;13.06;100.00
74346;BME280;62776;50.518;6.732;2022-10-16T03:29:28;96195.31;;;13.05;100.00
74346;BME280;62776;50.518;6.732;2022-10-16T03:32:15;96190.94;;;13.06;100.00
74346;BME280;62776;50.518;6.732;2022-10-16T03:35:01;96191.00;;;13.04;100.00
74346;BME280;62776;50.518;6.732;2022-10-16T03:37:47;96191.03;;;13.02;100.00
74346;BME280;62776;50.518;6.732;2022-10-16T03:40:33;96194.50;;;13.03;100.00
74346;BME280;62776;50.518;6.732;2022-10-16T03:43:19;96185.72;;;13.06;100.00
74346;BME280;62776;50.518;6.732;2022-10-16T03:46:05;96187.41;;;13.10;100.00
74346;BME280;62776;50.518;6.732;2022-10-16T03:48:51;96183.88;;;13.11;100.00
74346;BME280;62776;50.518;6.732;2022-10-16T03:51:37;96189.97;;;13.11;100.00
74346;BME280;62776;50.518;6.732;2022-10-16T03:54:23;96200.31;;;13.14;100.00
74346;BME280;62776;50.518;6.732;2022-10-16T03:57:09;96215.09;;;13.15;100.00
74346;BME280;62776;50.518;6.732;2022-10-16T03:59:56;96196.84;;;13.15;100.00
74346;BME280;62776;50.518;6.732;2022-10-16T04:02:42;96192.41;;;13.17;100.00
74346;BME280;62776;50.518;6.732;2022-10-16T04:05:28;96203.75;;;13.16;100.00
74346;BME280;62776;50.518;6.732;2022-10-16T04:08:14;96205.47;;;13.17;100.00
74346;BME280;62776;50.518;6.732;2022-10-16T04:11:00;96195.91;;;13.18;100.00
74346;BME280;62776;50.518;6.732;2022-10-16T04:13:46;96206.34;;;13.18;100.00
74346;BME280;62776;50.518;6.732;2022-10-16T04:16:33;96207.19;;;13.18;100.00
74346;BME280;62776;50.518;6.732;2022-10-16T04:19:19;96202.78;;;13.20;100.00
74346;BME280;62776;50.518;6.732;2022-10-16T04:22:05;96202.66;;;13.25;100.00
74346;BME280;62776;50.518;6.732;2022-10-16T04:24:51;96220.91;;;13.26;100.00
74346;BME280;62776;50.518;6.732;2022-10-16T04:27:37;96214.75;;;13.29;100.00
74346;BME280;62776;50.518;6.732;2022-10-16T04:30:24;96213.81;;;13.31;100.00
74346;BME280;62776;50.518;6.732;2022-10-16T04:33:10;96218.06;;;13.34;100.00
74346;BME280;62776;50.518;6.732;2022-10-16T04:35:58;96201.72;;;13.27;100.00
74346;BME280;62776;50.518;6.732;2022-10-16T04:38:44;96220.81;;;13.29;100.00
74346;BME280;62776;50.518;6.732;2022-10-16T04:41:30;96233.03;;;13.27;100.00
74346;BME280;62776;50.518;6.732;2022-10-16T04:44:16;96243.41;;;13.30;100.00
74346;BME280;62776;50.518;6.732;2022-10-16T04:47:02;96246.94;;;13.29;100.00
74346;BME280;62776;50.518;6.732;2022-10-16T04:49:48;96252.94;;;13.31;100.00
74346;BME280;62776;50.518;6.732;2022-10-16T04:52:35;96239.91;;;13.31;100.00
74346;BME280;62776;50.518;6.732;2022-10-16T04:55:21;96238.91;;;13.35;100.00
74346;BME280;62776;50.518;6.732;2022-10-16T04:58:07;96248.47;;;13.36;100.00
74346;BME280;62776;50.518;6.732;2022-10-16T05:00:53;96239.69;;;13.39;100.00
74346;BME280;62776;50.518;6.732;2022-10-16T05:03:39;96246.63;;;13.40;100.00
74346;BME280;62776;50.518;6.732;2022-10-16T05:06:26;96258.84;;;13.39;100.00
74346;BME280;62776;50.518;6.732;2022-10-16T05:09:12;96260.44;;;13.43;100.00
74346;BME280;62776;50.518;6.732;2022-10-16T05:11:58;96256.94;;;13.44;100.00
74346;BME280;62776;50.518;6.732;2022-10-16T05:14:44;96251.72;;;13.44;100.00
74346;BME280;62776;50.518;6.732;2022-10-16T05:17:30;96250.84;;;13.45;100.00
74346;BME280;62776;50.518;6.732;2022-10-16T05:20:16;96254.34;;;13.44;100.00
74346;BME280;62776;50.518;6.732;2022-10-16T05:23:02;96247.31;;;13.46;100.00
74346;BME280;62776;50.518;6.732;2022-10-16T05:25:56;96252.81;;;13.37;100.00
74346;BME280;62776;50.518;6.732;2022-10-16T05:28:43;96265.66;;;13.45;100.00
74346;BME280;62776;50.518;6.732;2022-10-16T05:31:30;96269.94;;;13.47;100.00
74346;BME280;62776;50.518;6.732;2022-10-16T05:34:16;96273.41;;;13.48;100.00
74346;BME280;62776;50.518;6.732;2022-10-16T05:37:02;96273.34;;;13.49;100.00
74346;BME280;62776;50.518;6.732;2022-10-16T05:39:48;96277.69;;;13.50;100.00
74346;BME280;62776;50.518;6.732;2022-10-16T05:42:34;96274.16;;;13.51;100.00
74346;BME280;62776;50.518;6.732;2022-10-16T05:45:20;96277.59;;;13.53;100.00
74346;BME280;62776;50.518;6.732;2022-10-16T05:48:06;96281.91;;;13.54;100.00
74346;BME280;62776;50.518;6.732;2022-10-16T05:51:05;96277.84;;;13.44;100.00
74346;BME280;62776;50.518;6.732;2022-10-16T05:53:52;96280.16;;;13.55;100.00
74346;BME280;62776;50.518;6.732;2022-10-16T05:56:38;96286.31;;;13.52;100.00
74346;BME280;62776;50.518;6.732;2022-10-16T05:59:24;96300.28;;;13.51;100.00
74346;BME280;62776;50.518;6.732;2022-10-16T06:02:13;96311.69;;;13.47;100.00
74346;BME280;62776;50.518;6.732;2022-10-16T06:04:59;96311.63;;;13.50;100.00
74346;BME280;62776;50.518;6.732;2022-10-16T06:07:45;96308.97;;;13.52;100.00
74346;BME280;62776;50.518;6.732;2022-10-16T06:10:31;96314.16;;;13.53;100.00
74346;BME280;62776;50.518;6.732;2022-10-16T06:13:17;96316.78;;;13.53;100.00
74346;BME280;62776;50.518;6.732;2022-10-16T06:16:04;96322.00;;;13.53;100.00
74346;BME280;62776;50.518;6.732;2022-10-16T06:18:54;96316.94;;;13.47;100.00
74346;BME280;62776;50.518;6.732;2022-10-16T06:21:41;96317.75;;;13.49;100.00
74346;BME280;62776;50.518;6.732;2022-10-16T06:24:27;96330.78;;;13.49;100.00
74346;BME280;62776;50.518;6.732;2022-10-16T06:27:13;96326.50;;;13.48;100.00
74346;BME280;62776;50.518;6.732;2022-10-16T06:29:59;96332.63;;;13.46;100.00
74346;BME280;62776;50.518;6.732;2022-10-16T06:32:45;96339.63;;;13.44;100.00
74346;BME280;62776;50.518;6.732;2022-10-16T06:35:31;96356.22;;;13.43;100.00
74346;BME280;62776;50.518;6.732;2022-10-16T06:38:18;96359.75;;;13.40;100.00
74346;BME280;62776;50.518;6.732;2022-10-16T06:41:05;96364.94;;;13.42;100.00
74346;BME280;62776;50.518;6.732;2022-10-16T06:43:51;96361.38;;;13.44;100.00
74346;BME280;62776;50.518;6.732;2022-10-16T06:46:38;96365.69;;;13.47;100.00
74346;BME280;62776;50.518;6.732;2022-10-16T06:49:24;96363.03;;;13.48;100.00
74346;BME280;62776;50.518;6.732;2022-10-16T06:52:10;96369.06;;;13.50;100.00
74346;BME280;62776;50.518;6.732;2022-10-16T06:54:56;96371.75;;;13.47;100.00
74346;BME280;62776;50.518;6.732;2022-10-16T06:57:42;96383.94;;;13.48;100.00
74346;BME280;62776;50.518;6.732;2022-10-16T07:00:29;96389.09;;;13.50;100.00
74346;BME280;62776;50.518;6.732;2022-10-16T07:03:15;96393.38;;;13.52;100.00
74346;BME280;62776;50.518;6.732;2022-10-16T07:06:03;96395.94;;;13.55;100.00
74346;BME280;62776;50.518;6.732;2022-10-16T07:08:50;96396.66;;;13.62;100.00
74346;BME280;62776;50.518;6.732;2022-10-16T07:11:38;96407.03;;;13.64;100.00
74346;BME280;62776;50.518;6.732;2022-10-16T07:14:24;96423.47;;;13.69;100.00
74346;BME280;62776;50.518;6.732;2022-10-16T07:17:10;96426.00;;;13.72;100.00
74346;BME280;62776;50.518;6.732;2022-10-16T07:19:56;96436.38;;;13.75;100.00
74346;BME280;62776;50.518;6.732;2022-10-16T07:22:42;96438.91;;;13.78;100.00
74346;BME280;62776;50.518;6.732;2022-10-16T07:25:29;96451.03;;;13.80;100.00
74346;BME280;62776;50.518;6.732;2022-10-16T07:28:15;96452.72;;;13.83;100.00
74346;BME280;62776;50.518;6.732;2022-10-16T07:31:10;96452.84;;;13.77;100.00
74346;BME280;62776;50.518;6.732;2022-10-16T07:33:59;96465.84;;;13.81;100.00
74346;BME280;62776;50.518;6.732;2022-10-16T07:36:48;96471.88;;;13.83;100.00
74346;BME280;62776;50.518;6.732;2022-10-16T07:39:34;96472.59;;;13.88;100.00
74346;BME280;62776;50.518;6.732;2022-10-16T07:42:20;96480.44;;;13.90;100.00
74346;BME280;62776;50.518;6.732;2022-10-16T07:45:07;96477.75;;;13.91;100.00
74346;BME280;62776;50.518;6.732;2022-10-16T07:47:53;96477.75;;;13.91;100.00
74346;BME280;62776;50.518;6.732;2022-10-16T07:50:39;96489.06;;;13.92;100.00
74346;BME280;62776;50.518;6.732;2022-10-16T07:53:25;96490.88;;;13.90;100.00
74346;BME280;62776;50.518;6.732;2022-10-16T07:56:12;96503.94;;;13.90;100.00
74346;BME280;62776;50.518;6.732;2022-10-16T07:58:59;96506.56;;;13.88;100.00
74346;BME280;62776;50.518;6.732;2022-10-16T08:01:45;96516.16;;;13.89;100.00
74346;BME280;62776;50.518;6.732;2022-10-16T08:04:31;96502.09;;;13.93;100.00
74346;BME280;62776;50.518;6.732;2022-10-16T08:07:17;96508.97;;;13.97;100.00
74346;BME280;62776;50.518;6.732;2022-10-16T08:10:03;96513.34;;;13.97;100.00
74346;BME280;62776;50.518;6.732;2022-10-16T08:12:49;96515.91;;;13.98;100.00
74346;BME280;62776;50.518;6.732;2022-10-16T08:15:36;96519.31;;;14.02;100.00
74346;BME280;62776;50.518;6.732;2022-10-16T08:18:22;96523.66;;;14.03;100.00
74346;BME280;62776;50.518;6.732;2022-10-16T08:21:20;96536.81;;;13.98;100.00
74346;BME280;62776;50.518;6.732;2022-10-16T08:24:07;96540.81;;;14.13;100.00
74346;BME280;62776;50.518;6.732;2022-10-16T08:26:56;96537.19;;;14.20;100.00
74346;BME280;62776;50.518;6.732;2022-10-16T08:29:42;96542.13;;;14.32;100.00
74346;BME280;62776;50.518;6.732;2022-10-16T08:32:28;96542.69;;;14.45;100.00
74346;BME280;62776;50.518;6.732;2022-10-16T08:35:15;96549.31;;;14.56;100.00
74346;BME280;62776;50.518;6.732;2022-10-16T08:38:04;96554.16;;;14.71;100.00
74346;BME280;62776;50.518;6.732;2022-10-16T08:40:50;96549.38;;;14.87;100.00
74346;BME280;62776;50.518;6.732;2022-10-16T08:49:40;96558.91;;;15.20;100.00
74346;BME280;62776;50.518;6.732;2022-10-16T08:52:30;96566.56;;;15.28;100.00
74346;BME280;62776;50.518;6.732;2022-10-16T08:58:21;96558.59;;;15.31;100.00
74346;BME280;62776;50.518;6.732;2022-10-16T09:01:14;96562.97;;;15.30;100.00
74346;BME280;62776;50.518;6.732;2022-10-16T09:07:10;96579.25;;;15.11;100.00
74346;BME280;62776;50.518;6.732;2022-10-16T09:10:11;96574.13;;;15.08;100.00
74346;BME280;62776;50.518;6.732;2022-10-16T09:19:24;96587.41;;;15.31;100.00
74346;BME280;62776;50.518;6.732;2022-10-16T09:22:16;96584.41;;;15.46;100.00
74346;BME280;62776;50.518;6.732;2022-10-16T09:25:13;96584.31;;;15.49;100.00
74346;BME280;62776;50.518;6.732;2022-10-16T09:27:59;96573.28;;;15.67;100.00
74346;BME280;62776;50.518;6.732;2022-10-16T09:30:46;96573.13;;;15.73;97.83
74346;BME280;62776;50.518;6.732;2022-10-16T09:33:36;96572.81;;;15.82;97.29
74346;BME280;62776;50.518;6.732;2022-10-16T09:36:26;96573.44;;;15.90;94.49
74346;BME280;62776;50.518;6.732;2022-10-16T09:39:13;96573.94;;;16.03;93.83
74346;BME280;62776;50.518;6.732;2022-10-16T09:42:00;96573.69;;;16.11;91.35
74346;BME280;62776;50.518;6.732;2022-10-16T09:44:49;96577.88;;;16.16;92.20
74346;BME280;62776;50.518;6.732;2022-10-16T09:47:40;96579.59;;;16.17;90.58
74346;BME280;62776;50.518;6.732;2022-10-16T09:50:28;96566.94;;;16.30;92.18
74346;BME280;62776;50.518;6.732;2022-10-16T09:53:15;96570.88;;;16.43;92.21
74346;BME280;62776;50.518;6.732;2022-10-16T09:56:04;96570.72;;;16.47;91.06
74346;BME280;62776;50.518;6.732;2022-10-16T09:58:57;96581.13;;;16.50;91.84
74346;BME280;62776;50.518;6.732;2022-10-16T10:01:49;96588.72;;;16.60;90.26
74346;BME280;62776;50.518;6.732;2022-10-16T10:04:37;96586.00;;;16.35;91.34
74346;BME280;62776;50.518;6.732;2022-10-16T10:07:27;96571.09;;;16.63;88.97
74346;BME280;62776;50.518;6.732;2022-10-16T10:10:22;96555.09;;;16.71;88.99
74346;BME280;62776;50.518;6.732;2022-10-16T10:13:20;96555.91;;;16.73;88.45
74346;BME280;62776;50.518;6.732;2022-10-16T10:16:06;96560.69;;;16.86;86.47
74346;BME280;62776;50.518;6.732;2022-10-16T10:18:59;96560.78;;;16.83;87.85
74346;BME280;62776;50.518;6.732;2022-10-16T10:21:46;96549.72;;;16.98;87.33
74346;BME280;62776;50.518;6.732;2022-10-16T10:24:32;96558.25;;;17.05;86.21
74346;BME280;62776;50.518;6.732;2022-10-16T10:27:19;96561.69;;;17.07;86.42
74346;BME280;62776;50.518;6.732;2022-10-16T10:34:09;96571.66;;;17.22;86.37
74346;BME280;62776;50.518;6.732;2022-10-16T10:36:28;96577.09;;;17.41;87.60
74346;BME280;62776;50.518;6.732;2022-10-16T10:42:34;96590.00;;;17.47;84.33
74346;BME280;62776;50.518;6.732;2022-10-16T10:48:53;96582.16;;;17.70;83.16
74346;BME280;62776;50.518;6.732;2022-10-16T10:55:28;96588.81;;;17.55;81.71
74346;BME280;62776;50.518;6.732;2022-10-16T10:58:35;96589.75;;;17.53;81.37
74346;BME280;62776;50.518;6.732;2022-10-16T11:05:15;96590.47;;;17.58;80.25
74346;BME280;62776;50.518;6.732;2022-10-16T11:08:22;96586.31;;;17.76;81.45
74346;BME280;62776;50.518;6.732;2022-10-16T11:11:25;96588.22;;;17.94;82.65
74346;BME280;62776;50.518;6.732;2022-10-16T11:14:25;96590.47;;;18.04;82.72
74346;BME280;62776;50.518;6.732;2022-10-16T11:17:25;96597.06;;;18.14;83.06
74346;BME280;62776;50.518;6.732;2022-10-16T11:20:25;96604.00;;;18.17;81.85
74346;BME280;62776;50.518;6.732;2022-10-16T11:23:30;96598.06;;;18.12;81.53
74346;BME280;62776;50.518;6.732;2022-10-16T11:26:25;96604.50;;;18.26;82.21
74346;BME280;62776;50.518;6.732;2022-10-16T11:29:18;96608.16;;;18.22;80.14
74346;BME280;62776;50.518;6.732;2022-10-16T11:32:10;96612.38;;;17.82;82.39
74346;BME280;62776;50.518;6.732;2022-10-16T11:35:11;96623.97;;;17.99;81.76
74346;BME280;62776;50.518;6.732;2022-10-16T11:38:03;96617.03;;;17.97;82.00
74346;BME280;62776;50.518;6.732;2022-10-16T11:40:54;96624.91;;;17.98;81.60
74346;BME280;62776;50.518;6.732;2022-10-16T11:43:49;96621.97;;;18.06;83.05
74346;BME280;62776;50.518;6.732;2022-10-16T11:46:42;96611.22;;;18.12;83.70
74346;BME280;62776;50.518;6.732;2022-10-16T11:49:34;96605.19;;;18.08;82.97
74346;BME280;62776;50.518;6.732;2022-10-16T11:52:37;96607.66;;;18.13;84.18
74346;BME280;62776;50.518;6.732;2022-10-16T11:55:31;96597.81;;;18.40;83.12
74346;BME280;62776;50.518;6.732;2022-10-16T11:58:36;96600.44;;;18.40;79.65
74346;BME280;62776;50.518;6.732;2022-10-16T12:01:43;96601.59;;;18.33;79.92
74346;BME280;62776;50.518;6.732;2022-10-16T12:04:34;96605.53;;;18.44;80.84
74346;BME280;62776;50.518;6.732;2022-10-16T12:07:27;96606.75;;;18.36;80.35
74346;BME280;62776;50.518;6.732;2022-10-16T12:10:24;96604.66;;;18.44;81.07
74346;BME280;62776;50.518;6.732;2022-10-16T12:13:34;96601.38;;;18.39;79.81
74346;BME280;62776;50.518;6.732;2022-10-16T12:16:22;96607.28;;;18.44;79.96
74346;BME280;62776;50.518;6.732;2022-10-16T12:19:15;96609.50;;;18.33;79.15
74346;BME280;62776;50.518;6.732;2022-10-16T12:22:02;96611.09;;;18.37;78.93
74346;BME280;62776;50.518;6.732;2022-10-16T12:24:52;96604.66;;;18.44;79.27
74346;BME280;62776;50.518;6.732;2022-10-16T12:27:40;96604.13;;;18.57;80.35
74346;BME280;62776;50.518;6.732;2022-10-16T12:30:28;96613.50;;;18.64;80.57
74346;BME280;62776;50.518;6.732;2022-10-16T12:33:41;96615.94;;;18.69;81.04
74346;BME280;62776;50.518;6.732;2022-10-16T12:36:33;96612.69;;;18.84;80.15
74346;BME280;62776;50.518;6.732;2022-10-16T12:39:24;96616.56;;;18.96;77.90
74346;BME280;62776;50.518;6.732;2022-10-16T12:48:22;96609.78;;;18.90;76.11
74346;BME280;62776;50.518;6.732;2022-10-16T12:51:35;96599.47;;;18.64;77.31
74346;BME280;62776;50.518;6.732;2022-10-16T13:16:11;96604.44;;;18.50;85.05
74346;BME280;62776;50.518;6.732;2022-10-16T13:22:25;96613.19;;;18.28;84.32
74346;BME280;62776;50.518;6.732;2022-10-16T13:28:27;96614.94;;;18.51;86.22
74346;BME280;62776;50.518;6.732;2022-10-16T13:31:21;96621.56;;;18.60;84.69
74346;BME280;62776;50.518;6.732;2022-10-16T13:34:17;96627.28;;;18.49;84.59
74346;BME280;62776;50.518;6.732;2022-10-16T13:37:20;96623.59;;;18.32;85.78
74346;BME280;62776;50.518;6.732;2022-10-16T13:40:20;96613.72;;;18.37;85.83
74346;BME280;62776;50.518;6.732;2022-10-16T13:43:09;96608.09;;;18.46;85.29
74346;BME280;62776;50.518;6.732;2022-10-16T13:48:55;96600.91;;;18.51;85.29
74346;BME280;62776;50.518;6.732;2022-10-16T13:51:53;96605.31;;;18.50;85.99
74346;BME280;62776;50.518;6.732;2022-10-16T13:54:39;96612.22;;;18.53;86.90
74346;BME280;62776;50.518;6.732;2022-10-16T13:57:25;96615.06;;;18.48;86.19
74346;BME280;62776;50.518;6.732;2022-10-16T14:00:22;96627.00;;;18.34;85.90
74346;BME280;62776;50.518;6.732;2022-10-16T14:03:14;96632.94;;;18.39;86.74
74346;BME280;62776;50.518;6.732;2022-10-16T14:06:02;96627.34;;;18.48;87.10
74346;BME280;62776;50.518;6.732;2022-10-16T14:11:53;96610.78;;;18.44;86.02
74346;BME280;62776;50.518;6.732;2022-10-16T14:14:42;96613.25;;;18.49;86.51
74346;BME280;62776;50.518;6.732;2022-10-16T14:17:32;96617.09;;;18.40;86.06
74346;BME280;62776;50.518;6.732;2022-10-16T14:20:23;96631.47;;;18.32;87.17
74346;BME280;62776;50.518;6.732;2022-10-16T14:23:37;96624.97;;;18.18;87.46
74346;BME280;62776;50.518;6.732;2022-10-16T14:26:27;96625.56;;;18.26;88.22
74346;BME280;62776;50.518;6.732;2022-10-16T14:29:19;96617.78;;;18.23;88.52
74346;BME280;62776;50.518;6.732;2022-10-16T14:32:06;96613.41;;;18.22;88.93
74346;BME280;62776;50.518;6.732;2022-10-16T14:35:23;96607.94;;;18.05;89.13
74346;BME280;62776;50.518;6.732;2022-10-16T14:38:18;96616.72;;;18.06;89.55
74346;BME280;62776;50.518;6.732;2022-10-16T14:41:06;96617.44;;;18.09;90.28
74346;BME280;62776;50.518;6.732;2022-10-16T14:43:56;96606.38;;;18.01;90.50
74346;BME280;62776;50.518;6.732;2022-10-16T14:46:43;96606.41;;;18.00;91.59
74346;BME280;62776;50.518;6.732;2022-10-16T14:49:30;96607.16;;;18.03;92.35
74346;BME280;62776;50.518;6.732;2022-10-16T14:52:17;96609.13;;;17.98;92.69
74346;BME280;62776;50.518;6.732;2022-10-16T14:55:03;96612.75;;;17.94;93.34
74346;BME280;62776;50.518;6.732;2022-10-16T14:57:50;96610.34;;;17.88;94.36
74346;BME280;62776;50.518;6.732;2022-10-16T15:00:36;96604.53;;;17.80;93.63
74346;BME280;62776;50.518;6.732;2022-10-16T15:03:22;96617.00;;;17.75;94.63
74346;BME280;62776;50.518;6.732;2022-10-16T15:06:11;96607.69;;;17.66;94.97
74346;BME280;62776;50.518;6.732;2022-10-16T15:08:57;96614.00;;;17.62;94.88
74346;BME280;62776;50.518;6.732;2022-10-16T15:11:44;96617.69;;;17.57;95.12
74346;BME280;62776;50.518;6.732;2022-10-16T15:14:30;96618.66;;;17.54;95.74
74346;BME280;62776;50.518;6.732;2022-10-16T15:17:16;96626.66;;;17.50;96.15
74346;BME280;62776;50.518;6.732;2022-10-16T15:20:02;96625.84;;;17.49;96.31
74346;BME280;62776;50.518;6.732;2022-10-16T15:22:48;96622.44;;;17.46;96.35
74346;BME280;62776;50.518;6.732;2022-10-16T15:25:38;96623.47;;;17.42;96.78
74346;BME280;62776;50.518;6.732;2022-10-16T15:28:27;96628.72;;;17.42;97.49
74346;BME280;62776;50.518;6.732;2022-10-16T15:31:13;96628.81;;;17.39;98.06
74346;BME280;62776;50.518;6.732;2022-10-16T15:34:00;96630.63;;;17.38;98.53
74346;BME280;62776;50.518;6.732;2022-10-16T15:36:50;96627.13;;;17.38;98.80
74346;BME280;62776;50.518;6.732;2022-10-16T15:39:36;96614.03;;;17.36;99.11
74346;BME280;62776;50.518;6.732;2022-10-16T15:42:22;96609.63;;;17.37;99.38
74346;BME280;62776;50.518;6.732;2022-10-16T15:45:10;96615.09;;;17.31;99.83
74346;BME280;62776;50.518;6.732;2022-10-16T15:47:57;96615.19;;;17.29;100.00
74346;BME280;62776;50.518;6.732;2022-10-16T15:50:43;96616.94;;;17.29;100.00
74346;BME280;62776;50.518;6.732;2022-10-16T15:53:29;96609.16;;;17.26;100.00
74346;BME280;62776;50.518;6.732;2022-10-16T15:56:15;96611.78;;;17.26;100.00
74346;BME280;62776;50.518;6.732;2022-10-16T15:59:02;96615.25;;;17.28;100.00
74346;BME280;62776;50.518;6.732;2022-10-16T16:01:48;96615.34;;;17.25;100.00
74346;BME280;62776;50.518;6.732;2022-10-16T16:04:34;96614.53;;;17.23;100.00
74346;BME280;62776;50.518;6.732;2022-10-16T16:07:23;96610.25;;;17.20;100.00
74346;BME280;62776;50.518;6.732;2022-10-16T16:10:10;96613.06;;;17.14;100.00
74346;BME280;62776;50.518;6.732;2022-10-16T16:12:57;96612.13;;;17.17;100.00
74346;BME280;62776;50.518;6.732;2022-10-16T16:15:43;96603.31;;;17.18;100.00
74346;BME280;62776;50.518;6.732;2022-10-16T16:18:29;96605.16;;;17.16;100.00